This is the latest recevied weather packets stored in our database for station/object CA4LJZ-10. If no packets are shown the sender has not sent any weather packets the latest 10 day(s).
| Time | Temp. | Humidity | Pressure | Rain* | Wind** | Luminosity | Snow |
|---|---|---|---|---|---|---|---|
| 1777687461 | 12.22° C | 71% | 959.4 hPa | - | - | - | - |
| 1777686560 | 12.22° C | 73% | 959.4 hPa | - | - | - | - |
| 1777685660 | 11.67° C | 76% | 959.4 hPa | - | - | - | - |
| 1777684758 | 11.67° C | 76% | 959.4 hPa | - | - | - | - |
| 1777683857 | 12.22° C | 74% | 959.5 hPa | - | - | - | - |
| 1777682956 | 13.33° C | 70% | 959.3 hPa | - | - | - | - |
| 1777682055 | 13.33° C | 70% | 959.3 hPa | - | - | - | - |
| 1777681154 | 12.78° C | 72% | 959.2 hPa | - | - | - | - |
| 1777680253 | 13.33° C | 72% | 959.1 hPa | - | - | - | - |
| 1777679353 | 13.33° C | 71% | 959.1 hPa | - | - | - | - |
| 1777678452 | 13.33° C | 70% | 958.8 hPa | - | - | - | - |
| 1777677622 | 13.89° C | 69% | 958.7 hPa | - | - | - | - |
| 1777677551 | 13.89° C | 69% | 958.7 hPa | - | - | - | - |
| 1777676650 | 14.44° C | 67% | 958.6 hPa | - | - | - | - |
| 1777675749 | 15° C | 65% | 958.5 hPa | - | - | - | - |
| 1777674848 | 15.56° C | 63% | 958.4 hPa | - | - | - | - |
| 1777673985 | 17.22° C | 59% | 958.3 hPa | - | - | - | - |
| 1777673947 | 17.22° C | 59% | 958.3 hPa | - | - | - | - |
| 1777671628 | 23.89° C | 48% | 957.9 hPa | - | - | - | - |
| 1777671002 | 23.89° C | 47% | 957.9 hPa | - | - | - | - |
| 1777665210 | 23.89° C | 45% | 958.6 hPa | - | - | - | - |
| 1777664298 | 23.89° C | 44% | 958.6 hPa | - | - | - | - |
| 1777663397 | 21.11° C | 52% | 958.7 hPa | - | - | - | - |
| 1777662496 | 18.89° C | 55% | 958.8 hPa | - | - | - | - |
| 1777661595 | 19.44° C | 56% | 958.6 hPa | - | - | - | - |
* Rain since midnight (hover to see other rain measurements)
** Current wind speed in m/s (hover to see current wind gust speed)